createdAt,value
2022-08-22T04:06:29.754Z,116.00
2022-08-22T04:07:33.290Z,128.00
2022-08-22T04:08:33.275Z,136.00
2022-08-22T04:09:34.609Z,148.00
2022-08-22T04:10:36.697Z,156.00
2022-08-22T04:11:38.856Z,172.00
2022-08-22T04:12:39.855Z,184.00
2022-08-22T04:13:41.565Z,204.00
2022-08-22T04:14:43.654Z,220.00
2022-08-22T04:15:45.771Z,236.00
2022-08-22T04:16:47.327Z,252.00
2022-08-22T04:17:49.411Z,268.00
2022-08-22T04:18:51.535Z,284.00
2022-08-22T04:19:53.014Z,308.00
2022-08-22T04:20:54.185Z,332.00
2022-08-22T04:22:02.370Z,352.00
2022-08-22T04:22:57.494Z,380.00
2022-08-22T04:23:59.625Z,408.00
2022-08-22T04:25:04.704Z,436.00
2022-08-22T04:26:10.699Z,468.00
2022-08-22T04:27:04.630Z,504.00
2022-08-22T04:28:05.579Z,532.00
2022-08-22T04:29:06.811Z,568.00
2022-08-22T04:30:08.951Z,596.00
2022-08-22T04:31:11.070Z,628.00
2022-08-22T04:32:14.666Z,664.00
2022-08-22T04:33:13.465Z,704.00
2022-08-22T04:34:15.804Z,752.00
2022-08-22T04:35:23.933Z,800.00
2022-08-22T04:36:19.082Z,848.00
2022-08-22T04:37:20.376Z,900.00
2022-08-22T04:38:22.503Z,944.00
2022-08-22T04:39:23.731Z,976.00
2022-08-22T04:40:25.960Z,1000.00
2022-08-22T04:41:33.203Z,1020.00
2022-08-22T04:42:32.736Z,1040.00
2022-08-22T04:43:29.609Z,1052.00
2022-08-22T04:44:30.613Z,1060.00
2022-08-22T04:45:33.160Z,1064.00
2022-08-22T04:46:37.048Z,1080.00
2022-08-22T04:47:35.797Z,1092.00
2022-08-22T04:48:37.925Z,1112.00
2022-08-22T04:49:40.022Z,1136.00
2022-08-22T04:50:43.312Z,1164.00
2022-08-22T04:51:43.277Z,1200.00
2022-08-22T04:52:45.406Z,1244.00
2022-08-22T04:53:47.526Z,1296.00
2022-08-22T04:54:48.708Z,1352.00
2022-08-22T04:55:51.031Z,1404.00
2022-08-22T04:56:52.072Z,1456.00
2022-08-22T04:57:54.193Z,1520.00
2022-08-22T04:58:56.320Z,1588.00
2022-08-22T04:59:58.475Z,1648.00
2022-08-22T05:01:00.679Z,1716.00
2022-08-22T05:02:02.855Z,1784.00
2022-08-22T05:03:05.021Z,1860.00
2022-08-22T05:04:07.157Z,1936.00
2022-08-22T05:05:13.338Z,2020.00
2022-08-22T05:06:09.739Z,2096.00
2022-08-22T05:07:12.071Z,2176.00
2022-08-22T05:08:19.085Z,2252.00
2022-08-22T05:09:20.927Z,2328.00
2022-08-22T05:10:16.046Z,2408.00
2022-08-22T05:11:18.365Z,2484.00
2022-08-22T05:12:20.024Z,2560.00
2022-08-22T05:13:22.146Z,2620.00
2022-08-22T05:14:24.267Z,2660.00
2022-08-22T05:15:26.394Z,2688.00
2022-08-22T05:16:28.513Z,2716.00
2022-08-22T05:17:30.638Z,2736.00
2022-08-22T05:18:32.980Z,2744.00
2022-08-22T05:19:34.285Z,2744.00
2022-08-22T05:20:36.494Z,2760.00
2022-08-22T05:21:38.581Z,2796.00
2022-08-22T05:22:40.754Z,2840.00
2022-08-22T05:23:42.127Z,2884.00
2022-08-22T05:24:43.091Z,2964.00
2022-08-22T05:25:45.313Z,3096.00
2022-08-22T05:26:46.470Z,3244.00
2022-08-22T05:27:48.598Z,3408.00
2022-08-22T05:28:53.094Z,3516.00
2022-08-22T05:29:52.085Z,3664.00
2022-08-22T05:30:54.312Z,3848.00
2022-08-22T05:31:56.496Z,4048.00
2022-08-22T05:32:58.629Z,4256.00
2022-08-22T05:33:59.669Z,4484.00
2022-08-22T05:35:01.798Z,4700.00
2022-08-22T05:36:03.939Z,4900.00
2022-08-22T05:37:08.223Z,5172.00
2022-08-22T05:38:08.106Z,5252.00
2022-08-22T05:39:16.283Z,5492.00
2022-08-22T05:40:11.449Z,5760.00
2022-08-22T05:41:12.563Z,6104.00
2022-08-22T05:42:14.685Z,6544.00
2022-08-22T05:43:21.925Z,6876.00
2022-08-22T05:44:17.059Z,7272.00
2022-08-22T05:45:19.190Z,7696.00
2022-08-22T05:46:21.511Z,8028.00
2022-08-22T05:47:22.756Z,8480.00
2022-08-22T05:48:25.082Z,8904.00
2022-08-22T05:49:26.031Z,9168.00
2022-08-22T05:50:28.378Z,9288.00
2022-08-22T05:51:30.505Z,9384.00
2022-08-22T05:52:32.656Z,9388.00
2022-08-22T05:53:34.356Z,9824.00
2022-08-22T05:54:35.308Z,9800.00
2022-08-22T05:55:37.463Z,9788.00
2022-08-22T05:56:39.785Z,10100.00
2022-08-22T05:57:40.737Z,10488.00
2022-08-22T05:58:41.821Z,10380.00
2022-08-22T05:59:43.945Z,10068.00
2022-08-22T06:00:46.173Z,10024.00
2022-08-22T06:01:48.432Z,10216.00
2022-08-22T06:02:50.786Z,10328.00
2022-08-22T06:03:51.740Z,10132.00
2022-08-22T06:04:53.860Z,9700.00
2022-08-22T06:05:55.292Z,10184.00
2022-08-22T06:06:57.415Z,10304.00
2022-08-22T06:07:58.494Z,10576.00
2022-08-22T06:08:59.560Z,10292.00
2022-08-22T06:10:01.693Z,10160.00
2022-08-22T06:11:03.815Z,10656.00
2022-08-22T06:12:06.078Z,10212.00
2022-08-22T06:13:11.358Z,10644.00
2022-08-22T06:14:09.417Z,11836.00
2022-08-22T06:15:12.015Z,11792.00
2022-08-22T06:16:12.325Z,11856.00
2022-08-22T06:17:14.451Z,10052.00
2022-08-22T06:18:16.582Z,10236.00
2022-08-22T06:19:19.942Z,11236.00
2022-08-22T06:20:20.063Z,10668.00
2022-08-22T06:21:22.189Z,10368.00
2022-08-22T06:22:24.401Z,10368.00
2022-08-22T06:23:26.033Z,10392.00
2022-08-22T06:24:28.165Z,10752.00
2022-08-22T06:25:29.339Z,11048.00
2022-08-22T06:26:31.493Z,11180.00
2022-08-22T06:27:33.792Z,11048.00
2022-08-22T06:28:34.775Z,10880.00
2022-08-22T06:29:37.023Z,11636.00
2022-08-22T06:30:39.139Z,11696.00
2022-08-22T06:31:41.344Z,11672.00
2022-08-22T06:32:59.219Z,12376.00
2022-08-22T06:33:45.935Z,12524.00
2022-08-22T06:34:46.919Z,13120.00
2022-08-22T06:35:49.037Z,13320.00
2022-08-22T06:36:51.192Z,12784.00
2022-08-22T06:37:53.401Z,12772.00
2022-08-22T06:38:54.401Z,13476.00
2022-08-22T06:39:55.639Z,13652.00
2022-08-22T06:40:57.821Z,9736.00
2022-08-22T06:42:06.036Z,9384.00
2022-08-22T06:43:01.639Z,9296.00
2022-08-22T06:44:03.295Z,8924.00
2022-08-22T06:45:04.761Z,9092.00
2022-08-22T06:46:05.723Z,9080.00
2022-08-22T06:47:07.934Z,8376.00
2022-08-22T06:48:16.114Z,7948.00
2022-08-22T06:49:11.229Z,7664.00
2022-08-22T06:50:13.597Z,7384.00
2022-08-22T06:51:13.714Z,7348.00
2022-08-22T06:52:14.711Z,8080.00
2022-08-22T06:53:17.056Z,8108.00
2022-08-22T06:54:19.197Z,8128.00
2022-08-22T06:55:21.493Z,8784.00
2022-08-22T06:56:22.694Z,7952.00
2022-08-22T06:57:24.853Z,12028.00
2022-08-22T06:58:26.030Z,8292.00
2022-08-22T06:59:27.315Z,8632.00
2022-08-22T07:00:28.280Z,8728.00
2022-08-22T07:01:29.275Z,8996.00
2022-08-22T07:02:31.446Z,11536.00
2022-08-22T07:03:32.425Z,13816.00
2022-08-22T07:04:33.589Z,12292.00
2022-08-22T07:05:34.789Z,10292.00
2022-08-22T07:06:35.977Z,12300.00
2022-08-22T07:07:38.113Z,11292.00
2022-08-22T07:08:40.291Z,13616.00
2022-08-22T07:09:41.495Z,16160.00
2022-08-22T07:10:42.461Z,11768.00
2022-08-22T07:11:44.656Z,18528.00
2022-08-22T07:12:46.787Z,16320.00
2022-08-22T07:13:54.961Z,22784.00
2022-08-22T07:14:50.106Z,17568.00
2022-08-22T07:15:51.317Z,22912.00
2022-08-22T07:16:52.581Z,25024.00
2022-08-22T07:17:53.557Z,25952.00
2022-08-22T07:18:54.669Z,26880.00
2022-08-22T07:19:56.813Z,28128.00
2022-08-22T07:20:59.009Z,28608.00
2022-08-22T07:22:00.285Z,30048.00
2022-08-22T07:23:02.405Z,29952.00
2022-08-22T07:24:03.490Z,29952.00
2022-08-22T07:25:04.687Z,32192.00
2022-08-22T07:26:06.816Z,33408.00
2022-08-22T07:27:07.823Z,34048.00
2022-08-22T07:28:10.000Z,33920.00
2022-08-22T07:29:12.398Z,35296.00
2022-08-22T07:30:12.922Z,35488.00
2022-08-22T07:31:14.094Z,35232.00
2022-08-22T07:32:15.162Z,34336.00
2022-08-22T07:33:25.658Z,36768.00
2022-08-22T07:34:19.608Z,39040.00
2022-08-22T07:35:20.634Z,37504.00
2022-08-22T07:36:23.291Z,38720.00
2022-08-22T07:37:24.331Z,39040.00
2022-08-22T07:38:26.459Z,34944.00
2022-08-22T07:39:28.586Z,18848.00
2022-08-22T07:40:30.708Z,29664.00
2022-08-22T07:41:32.830Z,16736.00
2022-08-22T07:42:34.958Z,23136.00
2022-08-22T07:43:35.914Z,33888.00
2022-08-22T07:44:38.122Z,33952.00
2022-08-22T07:45:46.365Z,31872.00
2022-08-22T07:46:41.497Z,34304.00
2022-08-22T07:47:46.967Z,31648.00
2022-08-22T07:49:07.686Z,34176.00
2022-08-22T07:49:49.875Z,31200.00
2022-08-22T07:50:47.415Z,32128.00
2022-08-22T07:51:48.603Z,33728.00
2022-08-22T07:52:56.797Z,31872.00
2022-08-22T07:53:52.043Z,31488.00
2022-08-22T07:54:53.118Z,30176.00
2022-08-22T07:55:54.106Z,29440.00
2022-08-22T07:56:56.235Z,30368.00
2022-08-22T07:57:58.581Z,33632.00
2022-08-22T07:59:00.292Z,35488.00
2022-08-22T08:00:01.314Z,36416.00
2022-08-22T08:01:02.420Z,37856.00
2022-08-22T08:02:03.601Z,39712.00
2022-08-22T08:03:05.819Z,40736.00
2022-08-22T08:04:08.546Z,40896.00
2022-08-22T08:05:09.693Z,37536.00
2022-08-22T08:06:10.675Z,37376.00
2022-08-22T08:07:13.074Z,39168.00
2022-08-22T08:08:15.653Z,40544.00
2022-08-22T08:09:15.805Z,42432.00
2022-08-22T08:10:16.865Z,36608.00
2022-08-22T08:11:19.019Z,38176.00
2022-08-22T08:12:21.136Z,40288.00
2022-08-22T08:13:23.245Z,39808.00
2022-08-22T08:14:25.328Z,43392.00
2022-08-22T08:15:27.531Z,40256.00
2022-08-22T08:16:28.569Z,43264.00
2022-08-22T08:17:32.371Z,42080.00
2022-08-22T08:18:32.332Z,41952.00
2022-08-22T08:19:34.469Z,42048.00
2022-08-22T08:20:36.600Z,42784.00
2022-08-22T08:21:38.720Z,45376.00
2022-08-22T08:22:40.986Z,45024.00
2022-08-22T08:23:43.180Z,45408.00
2022-08-22T08:24:45.844Z,48608.00
2022-08-22T08:25:47.000Z,49344.00
2022-08-22T08:26:49.232Z,50368.00
2022-08-22T08:27:51.416Z,49728.00
2022-08-22T08:28:52.426Z,50176.00
2022-08-22T08:29:54.603Z,49280.00
2022-08-22T08:30:56.778Z,50944.00
2022-08-22T08:31:58.899Z,48608.00
2022-08-22T08:33:25.788Z,45568.00
2022-08-22T08:34:03.284Z,47616.00
2022-08-22T08:35:04.335Z,46240.00
2022-08-22T08:36:05.575Z,47072.00
2022-08-22T08:37:06.581Z,48896.00
2022-08-22T08:38:08.728Z,51136.00
2022-08-22T08:39:10.853Z,49184.00
2022-08-22T08:40:13.039Z,51232.00
2022-08-22T08:41:14.062Z,50496.00
2022-08-22T08:42:16.241Z,31808.00
2022-08-22T08:43:17.185Z,32352.00
2022-08-22T08:44:18.335Z,42432.00
2022-08-22T08:45:19.656Z,45920.00
2022-08-22T08:46:21.860Z,49120.00
2022-08-22T08:47:22.838Z,55872.00
2022-08-22T08:48:24.969Z,56928.00
2022-08-22T08:49:27.096Z,54976.00
2022-08-22T08:50:28.885Z,53600.00
2022-08-22T08:51:29.851Z,55648.00
2022-08-22T08:52:31.992Z,52448.00
2022-08-22T08:53:34.147Z,52864.00
2022-08-22T08:54:36.293Z,48736.00
2022-08-22T08:55:38.853Z,59744.00
2022-08-22T08:56:39.814Z,53856.00
2022-08-22T08:57:41.434Z,58336.00
2022-08-22T08:58:42.869Z,55200.00
2022-08-22T08:59:44.912Z,56512.00
2022-08-22T09:00:45.966Z,58368.00
2022-08-22T09:01:47.766Z,49856.00
2022-08-22T09:02:48.822Z,46560.00
2022-08-22T09:03:51.439Z,40160.00
2022-08-22T09:04:52.442Z,39136.00
2022-08-22T09:05:54.563Z,38464.00
2022-08-22T09:07:01.084Z,44032.00
2022-08-22T09:07:59.255Z,38752.00
2022-08-22T09:09:00.385Z,33664.00
2022-08-22T09:10:01.553Z,33120.00
2022-08-22T09:11:03.654Z,33216.00
2022-08-22T09:12:04.876Z,30976.00
2022-08-22T09:13:11.720Z,32352.00
2022-08-22T09:14:08.261Z,33312.00
2022-08-22T09:15:11.918Z,33536.00
2022-08-22T09:16:11.993Z,38400.00
2022-08-22T09:17:14.123Z,35808.00
2022-08-22T09:18:18.117Z,38400.00
2022-08-22T09:19:16.985Z,50560.00
2022-08-22T09:20:19.685Z,38144.00
2022-08-22T09:21:30.471Z,36608.00
2022-08-22T09:22:27.891Z,33504.00
2022-08-22T09:23:22.293Z,36160.00
2022-08-22T09:24:29.555Z,36128.00
2022-08-22T09:25:24.686Z,41440.00
2022-08-22T09:26:25.683Z,53600.00
2022-08-22T09:27:27.812Z,52832.00
2022-08-22T09:28:28.995Z,49312.00
2022-08-22T09:29:31.177Z,53472.00
2022-08-22T09:30:33.311Z,30656.00
2022-08-22T09:32:37.681Z,49824.00
2022-08-22T09:33:38.728Z,37504.00
2022-08-22T09:34:40.940Z,41760.00
2022-08-22T09:35:42.697Z,34784.00
2022-08-22T09:36:43.815Z,35936.00
2022-08-22T09:37:45.936Z,37760.00
2022-08-22T09:38:47.978Z,39904.00
2022-08-22T09:39:49.547Z,35680.00
2022-08-22T09:40:50.729Z,34208.00
2022-08-22T09:41:51.934Z,36000.00
2022-08-22T09:42:54.076Z,37696.00
2022-08-22T09:43:55.093Z,38976.00
2022-08-22T09:44:57.230Z,31360.00
2022-08-22T09:46:01.904Z,37728.00
2022-08-22T09:46:59.836Z,32448.00
2022-08-22T09:48:07.264Z,39776.00
2022-08-22T09:49:05.613Z,31648.00
2022-08-22T09:50:05.307Z,32576.00
2022-08-22T09:51:31.251Z,32032.00
2022-08-22T09:52:15.146Z,31488.00
2022-08-22T09:53:10.007Z,35552.00
2022-08-22T09:54:11.224Z,52512.00
2022-08-22T09:55:18.299Z,44864.00
2022-08-22T09:56:15.155Z,49248.00
2022-08-22T09:57:15.743Z,42208.00
2022-08-22T09:58:16.726Z,37280.00
2022-08-22T09:59:18.860Z,42848.00
2022-08-22T10:00:22.092Z,42624.00
2022-08-22T10:01:22.702Z,42368.00
2022-08-22T10:02:24.844Z,51360.00
2022-08-22T10:03:26.547Z,44192.00
2022-08-22T10:04:27.704Z,48000.00
2022-08-22T10:05:41.272Z,44416.00
2022-08-22T10:06:31.224Z,46912.00
2022-08-22T10:07:32.336Z,45664.00
2022-08-22T10:08:34.459Z,48224.00
2022-08-22T10:09:36.770Z,44896.00
2022-08-22T10:10:38.539Z,43168.00
2022-08-22T10:11:42.355Z,52960.00
2022-08-22T10:12:42.085Z,58048.00
2022-08-22T10:13:43.476Z,56992.00
2022-08-22T10:14:50.586Z,50368.00
2022-08-22T10:15:47.510Z,58080.00
2022-08-22T10:16:48.755Z,47264.00
2022-08-22T10:17:50.880Z,47264.00
2022-08-22T10:18:53.769Z,48320.00
2022-08-22T10:19:53.982Z,38368.00
2022-08-22T10:20:56.106Z,37792.00
2022-08-22T10:21:58.339Z,39488.00
2022-08-22T10:23:00.730Z,32608.00
2022-08-22T10:24:01.912Z,32384.00
2022-08-22T10:25:03.129Z,35104.00
2022-08-22T10:26:04.735Z,31232.00
2022-08-22T10:27:06.912Z,33472.00
2022-08-22T10:28:10.533Z,33568.00
2022-08-22T10:29:10.550Z,40960.00
2022-08-22T10:30:13.202Z,35520.00
2022-08-22T10:31:15.012Z,40096.00
2022-08-22T10:32:17.225Z,37792.00
2022-08-22T10:33:19.313Z,34496.00
2022-08-22T10:34:21.656Z,65120.00
2022-08-22T10:35:23.687Z,33216.00
2022-08-22T10:36:26.259Z,42208.00
2022-08-22T10:37:27.299Z,34592.00
2022-08-22T10:38:28.444Z,47040.00
2022-08-22T10:39:29.662Z,34752.00
2022-08-22T10:40:31.224Z,35456.00
2022-08-22T10:41:33.367Z,36288.00
2022-08-22T10:42:35.867Z,39168.00
2022-08-22T10:43:37.493Z,34688.00
2022-08-22T10:44:39.599Z,40800.00
2022-08-22T10:45:40.973Z,44640.00
2022-08-22T10:46:43.109Z,33760.00
2022-08-22T10:47:45.234Z,36064.00
2022-08-22T10:48:47.326Z,63840.00
2022-08-22T10:49:49.339Z,50048.00
2022-08-22T10:50:49.959Z,44576.00
2022-08-22T10:51:51.150Z,58528.00
2022-08-22T10:52:53.375Z,43232.00
2022-08-22T10:53:54.410Z,44832.00
2022-08-22T10:54:55.927Z,44128.00
2022-08-22T10:55:58.059Z,43584.00
2022-08-22T10:56:59.729Z,43648.00
2022-08-22T10:58:01.959Z,40000.00
2022-08-22T10:59:03.983Z,40032.00
2022-08-22T11:00:05.013Z,42208.00
2022-08-22T11:01:38.482Z,39264.00
2022-08-22T11:02:09.618Z,33600.00
2022-08-22T11:03:14.416Z,41888.00
2022-08-22T11:04:12.253Z,37472.00
2022-08-22T11:05:13.538Z,32448.00
2022-08-22T11:06:14.788Z,33952.00
2022-08-22T11:07:16.378Z,34976.00
2022-08-22T11:08:18.511Z,31168.00
2022-08-22T11:09:20.639Z,33984.00
2022-08-22T11:10:22.776Z,38336.00
2022-08-22T11:11:24.588Z,35968.00
2022-08-22T11:12:26.640Z,34720.00
2022-08-22T11:13:28.081Z,41984.00
2022-08-22T11:14:29.067Z,31904.00
2022-08-22T11:15:34.790Z,66688.00
2022-08-22T11:16:36.622Z,43552.00
2022-08-22T11:17:38.669Z,56160.00
2022-08-22T11:18:36.250Z,45248.00
2022-08-22T11:19:43.388Z,38944.00
2022-08-22T11:20:38.979Z,53536.00
2022-08-22T11:21:40.554Z,41472.00
2022-08-22T11:22:42.675Z,42368.00
2022-08-22T11:23:44.247Z,46272.00
2022-08-22T11:24:56.404Z,42272.00
2022-08-22T11:25:52.503Z,52128.00
2022-08-22T11:26:49.969Z,61824.00
2022-08-22T11:27:57.621Z,55648.00
2022-08-22T11:28:52.816Z,67072.00
2022-08-22T11:29:54.940Z,57696.00
2022-08-22T11:30:56.305Z,63904.00
2022-08-22T11:32:06.022Z,47360.00
2022-08-22T11:33:01.105Z,53728.00
2022-08-22T11:34:01.052Z,58368.00
2022-08-22T11:35:02.567Z,52704.00
2022-08-22T11:36:04.847Z,50688.00
2022-08-22T11:37:11.790Z,57280.00
2022-08-22T11:38:10.947Z,54016.00
2022-08-22T11:39:09.905Z,43136.00
2022-08-22T11:40:12.354Z,30976.00
2022-08-22T11:41:12.218Z,37504.00
2022-08-22T11:42:14.365Z,46144.00
2022-08-22T11:43:18.279Z,66848.00
2022-08-22T11:44:18.262Z,66080.00
2022-08-22T11:45:20.479Z,47392.00
2022-08-22T11:46:22.528Z,36800.00
2022-08-22T11:47:26.794Z,32288.00
2022-08-22T11:48:26.345Z,30752.00
2022-08-22T11:49:28.485Z,29312.00
2022-08-22T11:50:30.182Z,28224.00
2022-08-22T11:51:34.220Z,26368.00
2022-08-22T11:52:33.070Z,27168.00
2022-08-22T11:53:34.628Z,30528.00
2022-08-22T11:54:35.655Z,29664.00
2022-08-22T11:55:36.926Z,29728.00
2022-08-22T11:56:40.232Z,26656.00
2022-08-22T11:57:41.808Z,24224.00
2022-08-22T11:58:42.481Z,25856.00
2022-08-22T11:59:44.608Z,28448.00
2022-08-22T12:00:46.789Z,31840.00
2022-08-22T12:01:48.935Z,54272.00
2022-08-22T12:02:50.102Z,52864.00
2022-08-22T12:03:58.121Z,38432.00
2022-08-22T12:04:53.562Z,33824.00
2022-08-22T12:05:54.524Z,30336.00
2022-08-22T12:06:56.112Z,30752.00
2022-08-22T12:07:57.320Z,28224.00
2022-08-22T12:08:58.655Z,47744.00
2022-08-22T12:09:59.861Z,44224.00
2022-08-22T12:11:01.993Z,34272.00
2022-08-22T12:12:03.443Z,33312.00
2022-08-22T12:13:05.700Z,52224.00
2022-08-22T12:14:07.851Z,30016.00
2022-08-22T12:15:10.031Z,28352.00
2022-08-22T12:16:17.885Z,50176.00
2022-08-22T12:17:21.252Z,68192.00
2022-08-22T12:18:21.172Z,62944.00
2022-08-22T12:19:16.372Z,42720.00
2022-08-22T12:20:18.736Z,41408.00
2022-08-22T12:21:18.717Z,24384.00
2022-08-22T12:22:20.134Z,44256.00
2022-08-22T12:23:43.375Z,53312.00
2022-08-22T12:24:24.742Z,46336.00
2022-08-22T12:25:25.715Z,63040.00
2022-08-22T12:26:27.839Z,65472.00
2022-08-22T12:27:29.958Z,87008.00
2022-08-22T12:28:31.243Z,65760.00
2022-08-22T12:29:33.814Z,88864.00
2022-08-22T12:30:34.438Z,79648.00
2022-08-22T12:31:34.789Z,73056.00
2022-08-22T12:32:35.867Z,61472.00
2022-08-22T12:33:37.986Z,55328.00
2022-08-22T12:34:40.102Z,54176.00
2022-08-22T12:35:41.420Z,55872.00
2022-08-22T12:36:43.632Z,45856.00
2022-08-22T12:37:44.958Z,31968.00
2022-08-22T12:38:47.063Z,42304.00
2022-08-22T12:39:48.264Z,44352.00
2022-08-22T12:40:49.284Z,39424.00
2022-08-22T12:41:51.498Z,36800.00
2022-08-22T12:42:52.536Z,43392.00
2022-08-22T12:43:54.673Z,44160.00
2022-08-22T12:45:03.555Z,38816.00
2022-08-22T12:45:58.736Z,37792.00
2022-08-22T12:47:00.875Z,37024.00
2022-08-22T12:48:03.198Z,41280.00
2022-08-22T12:49:07.461Z,59232.00
2022-08-22T12:50:07.651Z,58336.00
2022-08-22T12:51:17.539Z,49408.00
2022-08-22T12:52:11.778Z,56832.00
2022-08-22T12:53:15.922Z,37184.00
2022-08-22T12:54:15.634Z,27424.00
2022-08-22T12:55:15.639Z,25440.00
2022-08-22T12:56:17.730Z,24576.00
2022-08-22T12:57:23.800Z,23200.00
2022-08-22T12:58:20.930Z,21760.00
2022-08-22T12:59:21.887Z,20928.00
2022-08-22T13:00:26.791Z,19904.00
2022-08-22T13:01:34.126Z,18496.00
2022-08-22T13:02:26.953Z,16840.00
2022-08-22T13:03:27.921Z,15492.00
2022-08-22T13:04:33.674Z,14624.00
2022-08-22T13:05:34.322Z,14176.00
2022-08-22T13:06:33.890Z,14024.00
2022-08-22T13:07:34.908Z,14104.00
2022-08-22T13:08:36.216Z,14476.00
2022-08-22T13:09:38.315Z,15000.00
2022-08-22T13:10:39.283Z,15220.00
2022-08-22T13:11:40.668Z,15064.00
2022-08-22T13:12:44.190Z,15364.00
2022-08-22T13:13:44.508Z,15624.00
2022-08-22T13:14:46.622Z,15784.00
2022-08-22T13:15:53.626Z,16124.00
2022-08-22T13:16:50.960Z,16556.00
2022-08-22T13:17:51.082Z,17024.00
2022-08-22T13:18:53.842Z,17280.00
2022-08-22T13:19:54.978Z,17504.00
2022-08-22T13:20:56.465Z,17728.00
2022-08-22T13:21:57.845Z,17792.00
2022-08-22T13:22:59.966Z,17664.00
2022-08-22T13:24:01.731Z,17408.00
2022-08-22T13:25:04.863Z,17184.00
2022-08-22T13:26:07.580Z,17152.00
2022-08-22T13:27:06.517Z,17152.00
2022-08-22T13:28:08.502Z,17216.00
2022-08-22T13:29:25.228Z,17248.00
2022-08-22T13:30:12.396Z,17344.00
2022-08-22T13:31:12.486Z,17440.00
2022-08-22T13:32:14.581Z,17440.00
2022-08-22T13:33:16.750Z,17376.00
2022-08-22T13:34:17.839Z,17280.00
2022-08-22T13:35:19.092Z,17056.00
2022-08-22T13:36:20.348Z,16800.00
2022-08-22T13:37:24.538Z,16376.00
2022-08-22T13:38:26.127Z,16088.00
2022-08-22T13:39:26.269Z,15768.00
2022-08-22T13:40:29.001Z,15448.00
2022-08-22T13:41:30.044Z,15172.00
2022-08-22T13:42:31.321Z,14928.00
2022-08-22T13:43:32.215Z,14828.00
2022-08-22T13:44:34.412Z,14764.00
2022-08-22T13:45:36.576Z,14640.00
2022-08-22T13:46:58.010Z,14496.00
2022-08-22T13:47:41.008Z,14332.00
2022-08-22T13:48:41.837Z,14048.00
2022-08-22T13:49:43.096Z,13800.00
2022-08-22T13:50:53.417Z,13500.00
2022-08-22T13:51:46.288Z,13348.00
2022-08-22T13:52:52.276Z,13100.00
2022-08-22T13:54:00.432Z,12980.00
2022-08-22T13:54:58.199Z,12848.00
2022-08-22T13:55:53.313Z,12728.00
2022-08-22T13:56:55.447Z,12680.00
2022-08-22T13:57:57.583Z,12672.00
2022-08-22T13:58:59.599Z,12700.00
2022-08-22T14:00:06.336Z,12736.00
2022-08-22T14:01:03.053Z,12748.00
2022-08-22T14:02:04.421Z,12812.00
2022-08-22T14:03:08.090Z,12828.00
2022-08-22T14:04:06.993Z,12868.00
2022-08-22T14:05:09.230Z,12900.00
2022-08-22T14:06:36.950Z,12780.00
2022-08-22T14:07:12.437Z,12560.00
2022-08-22T14:08:13.528Z,12136.00
2022-08-22T14:09:14.746Z,11688.00
2022-08-22T14:10:16.067Z,11396.00
2022-08-22T14:11:18.241Z,11076.00
2022-08-22T14:12:20.468Z,10792.00
2022-08-22T14:13:22.349Z,10536.00
2022-08-22T14:14:23.399Z,10352.00
2022-08-22T14:15:25.058Z,10212.00
2022-08-22T14:16:27.191Z,10156.00
2022-08-22T14:17:29.061Z,10132.00
2022-08-22T14:18:31.486Z,10164.00
2022-08-22T14:19:35.064Z,10196.00
2022-08-22T14:20:34.884Z,10276.00
2022-08-22T14:21:40.754Z,10380.00
2022-08-22T14:22:36.752Z,10496.00
2022-08-22T14:23:38.856Z,10620.00
2022-08-22T14:24:45.706Z,10760.00
2022-08-22T14:25:41.386Z,10920.00
2022-08-22T14:26:47.449Z,11160.00
2022-08-22T14:27:45.606Z,11408.00
2022-08-22T14:28:46.684Z,11580.00
2022-08-22T14:29:50.458Z,11588.00
2022-08-22T14:30:50.856Z,11468.00
2022-08-22T14:31:58.439Z,11264.00
2022-08-22T14:32:53.648Z,11168.00
2022-08-22T14:33:55.821Z,11148.00
2022-08-22T14:34:56.940Z,11112.00
2022-08-22T14:35:58.440Z,10932.00
2022-08-22T14:36:59.544Z,10784.00
2022-08-22T14:38:01.743Z,10652.00
2022-08-22T14:39:02.735Z,10684.00
2022-08-22T14:40:04.289Z,10676.00
2022-08-22T14:41:12.856Z,10564.00
2022-08-22T14:42:10.054Z,10444.00
2022-08-22T14:43:10.182Z,10388.00
2022-08-22T14:44:11.140Z,10340.00
2022-08-22T14:45:13.401Z,10296.00
2022-08-22T14:46:15.629Z,10248.00
2022-08-22T14:47:54.234Z,10176.00
2022-08-22T14:48:30.142Z,10032.00
2022-08-22T14:49:24.987Z,9836.00
2022-08-22T14:50:21.839Z,9568.00
2022-08-22T14:51:22.799Z,9316.00
2022-08-22T14:52:24.923Z,9096.00
2022-08-22T14:53:26.960Z,8932.00
2022-08-22T14:54:29.111Z,8788.00
2022-08-22T14:55:30.635Z,8664.00
2022-08-22T14:56:31.923Z,8552.00
2022-08-22T14:57:34.041Z,8508.00
2022-08-22T14:58:36.183Z,8492.00
2022-08-22T14:59:37.396Z,8488.00
2022-08-22T15:00:38.584Z,8516.00
2022-08-22T15:01:40.736Z,8564.00
2022-08-22T15:02:41.708Z,8636.00
2022-08-22T15:03:43.859Z,8736.00
2022-08-22T15:04:46.050Z,8836.00
2022-08-22T15:05:47.669Z,8916.00
2022-08-22T15:06:49.795Z,8964.00
2022-08-22T15:07:51.957Z,8956.00
2022-08-22T15:08:54.078Z,8884.00
2022-08-22T15:09:55.149Z,8772.00
2022-08-22T15:10:57.390Z,8596.00
2022-08-22T15:11:58.403Z,8380.00
2022-08-22T15:13:00.404Z,8116.00
2022-08-22T15:14:02.613Z,7848.00
2022-08-22T15:15:10.077Z,7628.00
2022-08-22T15:16:09.453Z,7464.00
2022-08-22T15:17:07.315Z,7348.00
2022-08-22T15:18:09.603Z,7284.00
2022-08-22T15:19:11.537Z,7256.00
2022-08-22T15:20:13.680Z,7292.00
2022-08-22T15:21:16.061Z,7340.00
2022-08-22T15:22:17.778Z,7416.00
2022-08-22T15:23:19.983Z,7472.00
2022-08-22T15:24:21.191Z,7536.00
2022-08-22T15:25:22.396Z,7608.00
2022-08-22T15:26:24.159Z,7696.00
2022-08-22T15:27:25.393Z,7816.00
2022-08-22T15:28:27.524Z,7948.00
2022-08-22T15:29:29.758Z,8068.00
2022-08-22T15:30:29.903Z,8172.00
2022-08-22T15:31:31.154Z,8220.00
2022-08-22T15:32:33.495Z,8212.00
2022-08-22T15:33:34.460Z,8148.00
2022-08-22T15:34:35.810Z,8040.00
2022-08-22T15:35:40.193Z,7864.00
2022-08-22T15:36:38.838Z,7728.00
2022-08-22T15:37:40.988Z,7556.00
2022-08-22T15:38:48.127Z,7408.00
2022-08-22T15:39:44.150Z,7300.00
2022-08-22T15:40:45.686Z,7212.00
2022-08-22T15:41:47.048Z,7136.00
2022-08-22T15:42:48.043Z,7040.00
2022-08-22T15:43:48.966Z,6924.00
2022-08-22T15:44:49.918Z,6812.00
2022-08-22T15:45:51.328Z,6724.00
2022-08-22T15:46:52.471Z,6628.00
2022-08-22T15:47:54.510Z,6512.00
2022-08-22T15:48:56.638Z,6404.00
2022-08-22T15:49:58.338Z,6328.00
2022-08-22T15:50:59.647Z,6256.00
2022-08-22T15:52:00.971Z,6196.00
2022-08-22T15:53:06.848Z,6132.00
2022-08-22T15:54:03.355Z,6040.00
2022-08-22T15:55:05.592Z,5928.00
2022-08-22T15:56:06.690Z,5800.00
2022-08-22T15:57:08.890Z,5672.00
2022-08-22T15:58:09.838Z,5552.00
2022-08-22T15:59:11.678Z,5444.00
2022-08-22T16:00:13.927Z,5348.00
2022-08-22T16:01:20.037Z,5268.00
2022-08-22T16:02:16.515Z,5180.00
2022-08-22T16:03:17.574Z,5060.00
2022-08-22T16:04:19.697Z,4936.00
2022-08-22T16:05:21.868Z,4796.00
2022-08-22T16:06:23.991Z,4644.00
2022-08-22T16:07:25.110Z,4468.00
2022-08-22T16:08:26.198Z,4316.00
2022-08-22T16:09:27.666Z,4164.00
2022-08-22T16:10:29.792Z,4032.00
2022-08-22T16:11:33.464Z,3924.00
2022-08-22T16:12:33.550Z,3824.00
2022-08-22T16:13:34.735Z,3756.00
2022-08-22T16:14:35.994Z,3696.00
2022-08-22T16:15:38.198Z,3640.00
2022-08-22T16:16:40.336Z,3576.00
2022-08-22T16:17:42.503Z,3520.00
2022-08-22T16:18:44.631Z,3460.00